Time;durP1;ratioP1;P1;durP2;ratioP2;P2;SDS_P1;SDS_P2;PMS_P1;PMS_P2;Temp;Humidity;BMP_temperature;BMP_pressure;BME280_temperature;BME280_humidity;BME280_pressure;Samples;Min_cycle;Max_cycle;Signal;HPM_P1;HPM_P2
2023/01/26 00:02:24;;;;;;;29.70;16.40;;;;;;;-2.87;86.36;100782.08;109900;1281;22222;-68
2023/01/26 00:04:51;;;;;;;25.40;15.30;;;;;;;-2.85;86.28;100784.55;109914;1275;22225;-68
2023/01/26 00:07:18;;;;;;;27.80;15.20;;;;;;;-2.84;86.37;100780.93;109813;1276;139332;-68
2023/01/26 00:09:44;;;;;;;24.20;15.00;;;;;;;-2.83;86.24;100781.20;109848;1275;22317;-67
2023/01/26 00:12:11;;;;;;;26.90;16.10;;;;;;;-2.80;86.38;100783.22;109808;1275;138294;-68
2023/01/26 00:14:49;;;;;;;27.10;16.90;;;;;;;-2.77;86.44;100777.15;109845;1278;22357;-68
2023/01/26 00:17:24;;;;;;;28.20;16.10;;;;;;;-2.75;86.41;100775.48;109813;1278;139317;-67
2023/01/26 00:19:55;;;;;;;30.60;16.10;;;;;;;-2.72;86.46;100773.77;109849;1273;22485;-68
2023/01/26 00:22:23;;;;;;;26.80;16.40;;;;;;;-2.68;86.42;100773.93;109904;1280;22381;-67
2023/01/26 00:24:49;;;;;;;28.30;16.40;;;;;;;-2.68;86.35;100761.36;109791;1275;138281;-68
2023/01/26 00:27:16;;;;;;;28.30;17.20;;;;;;;-2.63;86.29;100764.45;109900;1281;22189;-68
2023/01/26 00:29:43;;;;;;;28.90;16.50;;;;;;;-2.62;86.10;100762.31;109817;1281;138996;-68
2023/01/26 00:32:10;;;;;;;;;;;;;;;-2.61;86.15;100758.83;109897;1281;22410;-67
2023/01/26 00:34:36;;;;;;;24.30;15.20;;;;;;;-2.59;86.09;100754.92;109877;1276;22706;-67
2023/01/26 00:37:03;;;;;;;30.50;16.70;;;;;;;-2.58;86.14;100752.20;109774;1278;139006;-67
2023/01/26 00:39:29;;;;;;;27.70;16.10;;;;;;;-2.58;86.11;100752.69;109170;1275;22542;-67
2023/01/26 00:42:05;;;;;;;34.00;18.30;;;;;;;-2.60;86.17;100748.59;105433;1275;138617;-67
2023/01/26 00:44:32;;;;;;;32.20;17.80;;;;;;;-2.59;86.01;100754.42;105482;1276;25480;-67
2023/01/26 00:46:59;;;;;;;33.10;18.40;;;;;;;-2.60;86.08;100749.23;105431;1281;26108;-67
2023/01/26 00:49:26;;;;;;;36.20;19.40;;;;;;;-2.61;86.05;100746.95;105317;1281;138410;-67
2023/01/26 00:51:53;;;;;;;;;;;;;;;-2.61;86.04;100742.33;105398;1281;26118;-67
2023/01/26 00:54:20;;;;;;;34.90;17.80;;;;;;;-2.61;85.92;100736.52;109757;1281;124308;-68
2023/01/26 00:56:46;;;;;;;;;;;;;;;-2.63;86.27;100738.98;109908;1281;22403;-68
2023/01/26 00:59:13;;;;;;;31.00;18.20;;;;;;;-2.64;86.14;100738.67;109753;1278;126320;-67
2023/01/26 01:01:40;;;;;;;34.00;19.30;;;;;;;-2.66;86.31;100739.20;109886;1275;22360;-68
2023/01/26 01:04:10;;;;;;;34.80;18.70;;;;;;;-2.65;86.33;100740.19;109893;1281;23039;-67
2023/01/26 01:06:37;;;;;;;32.40;17.70;;;;;;;-2.63;86.26;100738.81;109733;1278;137986;-67
2023/01/26 01:09:03;;;;;;;35.60;18.50;;;;;;;-2.60;86.37;100738.33;109889;1281;22266;-68
2023/01/26 01:11:31;;;;;;;36.30;19.60;;;;;;;-2.56;86.48;100736.16;109787;1281;138290;-68
2023/01/26 01:13:57;;;;;;;39.70;20.10;;;;;;;-2.55;86.43;100732.10;109867;1276;22383;-68
2023/01/26 01:16:24;;;;;;;37.70;20.30;;;;;;;-2.53;86.18;100729.45;109733;1279;139662;-68
2023/01/26 01:18:54;;;;;;;34.80;19.60;;;;;;;-2.50;86.38;100723.90;109848;1281;23123;-67
2023/01/26 01:21:22;;;;;;;42.80;21.40;;;;;;;-2.46;86.23;100720.32;109901;1276;22220;-67
2023/01/26 01:23:49;;;;;;;35.00;19.90;;;;;;;-2.44;86.36;100719.23;109781;1273;138931;-67
2023/01/26 01:26:17;;;;;;;35.10;20.50;;;;;;;-2.43;86.21;100718.94;109847;1274;22344;-68
2023/01/26 01:28:44;;;;;;;37.90;21.70;;;;;;;-2.42;86.26;100714.20;109764;1281;139185;-67
2023/01/26 01:31:12;;;;;;;34.30;20.50;;;;;;;-2.39;86.10;100711.81;109894;1273;23627;-67
2023/01/26 01:33:39;;;;;;;35.90;20.10;;;;;;;-2.38;86.08;100706.70;109869;1273;22213;-67
2023/01/26 01:36:09;;;;;;;34.00;18.60;;;;;;;-2.35;85.74;100706.98;109770;1281;140368;-67
2023/01/26 01:38:36;;;;;;;32.90;18.20;;;;;;;-2.33;85.76;100702.50;109880;1282;22200;-67
2023/01/26 01:41:02;;;;;;;37.60;20.60;;;;;;;-2.29;85.86;100701.76;106328;1275;138384;-67
2023/01/26 01:43:29;;;;;;;32.80;19.10;;;;;;;-2.26;85.62;100695.41;105745;1282;25389;-67
2023/01/26 01:45:56;;;;;;;36.70;19.60;;;;;;;-2.25;85.59;100693.52;105586;1282;24415;-67
2023/01/26 01:48:57;;;;;;;39.00;21.20;;;;;;;-2.25;85.38;100690.17;105562;1276;138984;-67
2023/01/26 01:51:33;;;;;;;37.80;18.90;;;;;;;-2.25;85.46;100693.38;105628;1275;22782;-67
2023/01/26 01:54:03;;;;;;;38.00;20.80;;;;;;;-2.27;85.59;100683.80;105529;1278;138178;-67
2023/01/26 01:56:30;;;;;;;39.30;20.20;;;;;;;-2.30;85.41;100680.30;109864;1281;22228;-68
2023/01/26 01:58:57;;;;;;;35.80;20.20;;;;;;;-2.30;85.45;100679.92;109680;1281;138580;-68
2023/01/26 02:01:24;;;;;;;37.30;20.10;;;;;;;-2.29;85.59;100681.34;109853;1279;22231;-67
2023/01/26 02:03:53;;;;;;;35.90;20.10;;;;;;;-2.28;85.58;100683.33;109943;1281;22395;-67
2023/01/26 02:06:34;;;;;;;40.20;21.80;;;;;;;-2.26;85.55;100679.36;109766;1281;139407;-68
2023/01/26 02:09:00;;;;;;;36.80;20.80;;;;;;;-2.23;85.66;100674.63;109854;1281;22355;-68
2023/01/26 02:11:31;;;;;;;41.60;22.00;;;;;;;-2.21;85.61;100669.82;109666;1269;138553;-67
2023/01/26 02:14:02;;;;;;;38.50;21.10;;;;;;;-2.19;85.53;100665.38;109916;1281;22209;-67
2023/01/26 02:16:30;;;;;;;42.40;22.30;;;;;;;-2.19;85.37;100658.94;109767;1279;138673;-67
2023/01/26 02:18:57;;;;;;;;;;;;;;;-2.20;85.15;100652.08;109866;1281;22427;-67
2023/01/26 02:21:25;;;;;;;38.10;20.50;;;;;;;-2.21;84.90;100650.06;109899;1275;22205;-67
2023/01/26 02:24:14;;;;;;;37.20;20.80;;;;;;;-2.23;84.88;100644.94;109739;1281;140320;-68
2023/01/26 02:26:41;;;;;;;40.00;22.40;;;;;;;-2.25;84.99;100645.53;109851;1279;22231;-67
2023/01/26 02:29:08;;;;;;;32.90;19.60;;;;;;;-2.26;84.79;100641.15;109776;1278;138503;-68
2023/01/26 02:31:38;;;;;;;36.80;20.30;;;;;;;-2.27;84.59;100637.52;109851;1281;22191;-67
2023/01/26 02:34:06;;;;;;;45.50;22.10;;;;;;;-2.29;84.77;100639.08;109900;1278;22195;-67
2023/01/26 02:36:33;;;;;;;44.40;24.60;;;;;;;-2.31;84.67;100638.59;109764;1281;140490;-67
2023/01/26 02:39:12;;;;;;;;;;;;;;;-2.33;84.65;100637.64;109881;1281;22415;-67
2023/01/26 02:44:24;;;;;;;36.50;20.30;;;;;;;-2.40;84.86;100636.44;109814;1281;22233;-68
2023/01/26 02:46:51;;;;;;;38.00;20.80;;;;;;;-2.43;85.13;100631.56;109751;1281;139211;-67
2023/01/26 02:52:04;;;;;;;42.70;22.20;;;;;;;-2.48;85.03;100629.23;109861;1281;22400;-68
2023/01/26 02:57:18;;;;;;;42.30;22.70;;;;;;;-2.51;85.41;100623.23;109893;1278;22192;-68
2023/01/26 02:59:44;;;;;;;40.50;23.50;;;;;;;-2.52;85.11;100618.38;109656;1279;138556;-68
2023/01/26 03:02:58;;;;;;;41.80;24.30;;;;;;;-2.50;85.32;100615.20;103077;1308;544873;-67
2023/01/26 03:05:27;;;;;;;39.80;23.20;;;;;;;-2.53;85.12;100611.05;105063;1287;137487;-68
2023/01/26 03:07:55;;;;;;;42.50;23.90;;;;;;;-2.55;85.13;100616.00;105074;1291;22546;-67
2023/01/26 03:10:26;;;;;;;47.90;25.00;;;;;;;-2.58;85.27;100614.67;104903;1291;137359;-68
2023/01/26 03:12:54;;;;;;;43.30;23.20;;;;;;;-2.58;85.59;100618.05;109301;1288;23305;-68
2023/01/26 03:29:20;;;;;;;41.50;22.70;;;;;;;-2.72;85.96;100603.42;109502;1280;138099;-68
2023/01/26 03:31:48;;;;;;;43.50;23.10;;;;;;;-2.72;85.98;100599.20;109558;1286;22206;-68
2023/01/26 03:34:17;;;;;;;41.20;23.30;;;;;;;-2.73;86.06;100594.89;109426;1286;139820;-68
2023/01/26 03:36:46;;;;;;;46.50;23.70;;;;;;;-2.76;86.10;100592.43;109585;1280;22210;-68
2023/01/26 03:56:13;;;;;;;48.10;23.60;;;;;;;-2.79;86.39;100590.98;109492;1286;23577;-68
2023/01/26 03:58:41;;;;;;;44.00;23.50;;;;;;;-2.80;86.66;100594.61;109435;1281;138383;-68
2023/01/26 04:01:17;;;;;;;41.60;23.80;;;;;;;-2.79;86.74;100599.67;109519;1286;22308;-68
2023/01/26 04:09:21;;;;;;;44.80;23.70;;;;;;;-2.78;86.75;100598.02;109506;1283;22213;-68
2023/01/26 04:11:49;;;;;;;42.00;23.50;;;;;;;-2.80;86.51;100595.11;109418;1287;138840;-67
2023/01/26 04:22:52;;;;;;;44.10;23.70;;;;;;;-2.66;86.77;100611.08;109359;1282;138225;-68
2023/01/26 04:25:22;;;;;;;42.20;23.00;;;;;;;-2.62;87.03;100611.39;109556;1282;23046;-67
2023/01/26 04:27:50;;;;;;;47.50;23.90;;;;;;;-2.59;86.71;100613.21;109569;1287;22421;-68
2023/01/26 04:30:18;;;;;;;43.80;23.30;;;;;;;-2.56;86.67;100617.75;109403;1285;138219;-68
2023/01/26 04:32:49;;;;;;;40.90;22.60;;;;;;;-2.59;86.73;100607.98;109515;1286;23555;-68
2023/01/26 04:35:17;;;;;;;45.10;23.10;;;;;;;-2.57;86.29;100611.53;109461;1286;138030;-68
2023/01/26 04:37:47;;;;;;;36.90;21.70;;;;;;;-2.56;86.53;100611.67;109571;1286;22333;-68
2023/01/26 04:40:15;;;;;;;43.30;22.70;;;;;;;-2.55;86.52;100613.14;109528;1287;22397;-68
2023/01/26 04:42:43;;;;;;;38.30;20.90;;;;;;;-2.55;86.61;100611.20;109468;1287;23521;-68
2023/01/26 04:45:11;;;;;;;38.70;20.90;;;;;;;-2.58;86.47;100604.55;109569;1287;22286;-68
2023/01/26 04:47:39;;;;;;;39.20;21.40;;;;;;;-2.61;86.09;100604.66;109354;1287;138955;-67
2023/01/26 04:50:09;;;;;;;40.80;21.60;;;;;;;-2.64;86.21;100601.41;109535;1287;22394;-68
2023/01/26 04:52:38;;;;;;;38.00;22.20;;;;;;;-2.67;86.21;100599.88;109406;1278;140077;-67
2023/01/26 04:55:08;;;;;;;34.30;20.20;;;;;;;-2.68;86.31;100600.20;109646;1282;22420;-68
2023/01/26 04:57:36;;;;;;;39.40;23.50;;;;;;;-2.69;86.28;100600.30;109619;1285;22180;-68
2023/01/26 05:00:05;;;;;;;50.10;27.00;;;;;;;-2.71;86.60;100598.40;109448;1286;138234;-68
2023/01/26 05:02:34;;;;;;;44.10;26.20;;;;;;;-2.71;86.57;100595.20;109504;1281;22429;-68
2023/01/26 05:05:02;;;;;;;49.80;27.00;;;;;;;-2.72;86.85;100589.39;109451;1280;138308;-68
2023/01/26 15:15:12;;;;;;;60.80;31.40;;;;;;;-1.60;90.79;100317.38;105501;1299;557780;-87
2023/01/26 15:17:41;;;;;;;60.90;30.00;;;;;;;-1.47;90.55;100311.36;107117;1277;100857;-88
2023/01/26 15:20:21;;;;;;;47.60;24.80;;;;;;;-1.43;90.24;100314.50;107249;1284;138116;-89
2023/01/26 15:22:50;;;;;;;47.30;22.30;;;;;;;-1.39;90.41;100323.08;107360;1278;22617;-88
2023/01/26 15:25:26;;;;;;;44.10;22.10;;;;;;;-1.38;90.56;100327.19;107044;1285;137903;-88
2023/01/26 15:27:55;;;;;;;41.90;21.90;;;;;;;-1.37;90.42;100331.93;109746;1277;22611;-88
2023/01/26 15:30:30;;;;;;;44.90;22.20;;;;;;;-1.36;90.26;100331.05;108347;1285;25362;-89
2023/01/26 15:32:59;;;;;;;46.40;22.10;;;;;;;-1.34;90.24;100330.41;107025;1285;137685;-88
2023/01/26 15:35:31;;;;;;;42.00;21.30;;;;;;;-1.34;90.06;100327.51;106986;1278;23788;-90
2023/01/26 15:38:10;;;;;;;47.50;23.30;;;;;;;-1.34;90.40;100325.38;107092;1285;137897;-88
2023/01/26 15:40:39;;;;;;;50.90;22.60;;;;;;;-1.32;90.18;100328.20;107322;1284;23181;-88
2023/01/26 15:43:11;;;;;;;46.00;24.00;;;;;;;-1.31;90.11;100327.19;107052;1278;138283;-85
2023/01/26 16:51:26;;;;;;;37.50;18.90;;;;;;;-1.26;90.08;100317.39;109843;1282;22913;-66
2023/01/26 16:53:54;;;;;;;38.30;20.60;;;;;;;-1.27;89.91;100321.90;109789;1283;22254;-66
2023/01/26 16:56:20;;;;;;;44.30;23.80;;;;;;;-1.28;90.15;100322.00;109796;1282;138396;-65
2023/01/26 16:58:47;;;;;;;;;;;;;;;-1.28;89.91;100321.66;109809;1280;22461;-65
2023/01/26 17:01:17;;;;;;;47.80;22.60;;;;;;;-1.28;89.95;100320.52;109805;1281;124137;-66
2023/01/26 17:03:44;;;;;;;43.90;23.50;;;;;;;-1.26;90.17;100322.88;109929;1279;22200;-66
2023/01/26 17:06:11;;;;;;;39.90;20.00;;;;;;;-1.25;90.24;100325.45;109841;1276;22950;-66
2023/01/26 17:08:38;;;;;;;43.10;19.50;;;;;;;-1.25;90.36;100324.86;109790;1280;138834;-67
2023/01/26 17:11:05;;;;;;;40.00;20.30;;;;;;;-1.27;89.85;100317.64;109855;1275;22219;-66
2023/01/26 17:13:33;;;;;;;48.50;22.70;;;;;;;-1.22;89.90;100324.91;109779;1281;138284;-65
2023/01/26 17:16:00;;;;;;;42.00;20.50;;;;;;;-1.21;89.98;100324.31;109826;1275;22327;-64
2023/01/26 17:18:28;;;;;;;69.00;31.90;;;;;;;-1.20;90.07;100322.08;109717;1275;138177;-65
2023/01/26 17:21:01;;;;;;;58.70;28.70;;;;;;;-1.19;90.12;100319.84;109822;1275;23410;-66
2023/01/26 17:23:30;;;;;;;77.50;37.60;;;;;;;-1.18;89.87;100323.66;109825;1279;22182;-66
2023/01/26 17:25:58;;;;;;;58.30;31.00;;;;;;;-1.21;89.77;100320.03;109779;1273;138890;-65
2023/01/26 17:28:27;;;;;;;45.50;24.00;;;;;;;-1.21;89.74;100322.67;109896;1281;22212;-66
2023/01/26 17:30:55;;;;;;;41.10;21.20;;;;;;;-1.21;89.90;100323.21;109799;1275;138783;-65
2023/01/26 17:33:22;;;;;;;44.60;22.30;;;;;;;-1.19;89.85;100324.45;109878;1280;22886;-65
2023/01/26 17:35:48;;;;;;;42.90;22.50;;;;;;;-1.18;89.90;100325.70;109909;1274;22944;-65
2023/01/26 17:38:16;;;;;;;41.90;22.00;;;;;;;-1.16;89.93;100327.50;109684;1281;138922;-65
2023/01/26 17:40:42;;;;;;;37.30;18.60;;;;;;;-1.16;89.93;100322.83;109909;1282;23280;-65
2023/01/26 17:43:09;;;;;;;43.40;20.20;;;;;;;-1.15;89.79;100321.67;109686;1281;138118;-65
2023/01/26 17:45:36;;;;;;;39.00;19.20;;;;;;;-1.16;89.85;100319.77;109918;1277;22177;-66
2023/01/26 17:48:02;;;;;;;;;;;;;;;-1.16;89.75;100319.09;109901;1278;23570;-65
2023/01/26 17:50:29;;;;;;;39.70;19.30;;;;;;;-1.15;89.81;100313.08;109799;1281;124244;-65
2023/01/26 17:52:55;;;;;;;40.60;18.90;;;;;;;-1.13;89.97;100313.29;109880;1275;22205;-66
2023/01/26 17:55:22;;;;;;;40.40;18.40;;;;;;;-1.11;89.86;100315.94;109755;1281;139601;-65
2023/01/26 17:57:49;;;;;;;35.10;18.50;;;;;;;-1.12;89.97;100316.64;109823;1280;22386;-65
2023/01/26 18:00:16;;;;;;;39.00;17.50;;;;;;;-1.12;89.94;100318.16;109867;1266;22176;-65
2023/01/26 18:02:46;;;;;;;35.80;18.70;;;;;;;-1.17;89.86;100311.38;109848;1264;22197;-66
2023/01/26 18:05:12;;;;;;;32.90;17.50;;;;;;;-1.15;89.69;100316.86;109887;1282;22151;-64
2023/01/26 18:07:39;;;;;;;41.00;19.70;;;;;;;-1.17;89.84;100316.52;109765;1275;139144;-65
2023/01/26 18:10:07;;;;;;;38.40;20.80;;;;;;;-1.19;89.79;100317.77;106706;1278;22766;-65
2023/01/26 18:12:36;;;;;;;42.20;20.90;;;;;;;-1.18;90.04;100318.27;105447;1276;138410;-64
2023/01/26 18:15:03;;;;;;;42.10;21.70;;;;;;;-1.17;89.93;100317.81;105430;1277;25197;-64
2023/01/26 18:17:30;;;;;;;44.40;21.50;;;;;;;-1.16;90.02;100316.81;105466;1275;22553;-64
2023/01/26 18:19:57;;;;;;;50.80;25.10;;;;;;;-1.15;90.12;100314.56;105335;1275;139370;-64
2023/01/26 18:22:23;;;;;;;41.50;21.70;;;;;;;-1.16;89.98;100311.39;105509;1279;25423;-64
2023/01/26 18:24:51;;;;;;;;;;;;;;;-1.15;89.71;100313.98;105462;1273;138776;-64
2023/01/26 18:27:18;;;;;;;35.60;16.80;;;;;;;-1.14;90.03;100310.89;109784;1276;22910;-64
2023/01/26 18:29:46;;;;;;;44.30;21.00;;;;;;;-1.14;89.79;100313.02;109891;1281;22276;-65
2023/01/26 18:32:12;;;;;;;44.30;21.50;;;;;;;-1.14;90.01;100314.62;109726;1282;139207;-62
2023/01/26 18:34:40;;;;;;;44.20;20.60;;;;;;;-1.15;89.69;100316.84;109919;1273;22984;-65
2023/01/26 18:37:11;;;;;;;49.00;22.60;;;;;;;-1.15;89.71;100314.70;109752;1281;138731;-65
2023/01/26 18:39:37;;;;;;;42.60;20.60;;;;;;;-1.15;89.68;100312.95;109850;1281;22398;-64
2023/01/26 18:42:05;;;;;;;44.90;21.60;;;;;;;-1.16;89.64;100312.20;109908;1276;22362;-65
2023/01/26 18:44:31;;;;;;;40.50;20.80;;;;;;;-1.16;89.38;100313.23;109764;1280;138396;-65
2023/01/26 18:46:58;;;;;;;39.40;19.60;;;;;;;-1.17;89.79;100309.79;109886;1281;22352;-66
2023/01/26 18:49:24;;;;;;;35.80;17.70;;;;;;;-1.19;89.42;100307.64;109754;1279;139347;-66
2023/01/26 18:51:52;;;;;;;42.60;22.60;;;;;;;-1.20;89.66;100302.05;109894;1276;22853;-65
2023/01/26 18:54:18;;;;;;;44.20;21.10;;;;;;;-1.20;89.71;100301.16;109877;1281;22228;-65
2023/01/26 18:56:47;;;;;;;46.80;22.40;;;;;;;-1.17;89.37;100303.41;109842;1275;22376;-64
2023/01/26 18:59:15;;;;;;;43.10;23.60;;;;;;;-1.16;89.47;100303.29;109896;1275;23081;-64
2023/01/26 19:01:42;;;;;;;46.40;22.00;;;;;;;-1.15;89.78;100303.42;109708;1277;139655;-64
2023/01/26 19:04:09;;;;;;;;;;;;;;;-1.15;89.29;100304.36;109918;1278;22414;-65
2023/01/26 19:06:37;;;;;;;45.70;20.20;;;;;;;-1.15;89.45;100304.77;109783;1281;124514;-64
2023/01/26 19:09:05;;;;;;;44.50;21.50;;;;;;;-1.15;89.54;100299.02;109913;1281;22174;-63
2023/01/26 19:11:34;;;;;;;38.60;19.60;;;;;;;-1.14;89.62;100301.26;109905;1281;23337;-64
2023/01/26 19:14:00;;;;;;;40.70;21.40;;;;;;;-1.13;89.13;100298.14;109757;1282;138621;-64
2023/01/26 19:16:28;;;;;;;41.30;20.40;;;;;;;-1.16;89.30;100293.50;109888;1276;22370;-65
2023/01/26 19:18:55;;;;;;;39.50;21.90;;;;;;;-1.13;89.21;100302.70;109638;1278;138713;-65
2023/01/26 19:21:23;;;;;;;;;;;;;;;-1.12;89.24;100300.86;109883;1275;22414;-64
2023/01/26 19:23:51;;;;;;;49.00;24.30;;;;;;;-1.11;89.29;100304.98;109937;1275;22161;-65
2023/01/26 19:26:19;;;;;;;39.10;20.00;;;;;;;-1.12;89.03;100302.40;109791;1282;138418;-64
2023/01/26 19:28:46;;;;;;;41.40;21.80;;;;;;;-1.13;89.26;100305.00;109740;1282;22708;-64
2023/01/26 19:31:18;;;;;;;40.20;22.50;;;;;;;-1.12;89.17;100307.84;109686;1282;138298;-64
2023/01/26 19:33:49;;;;;;;43.40;24.20;;;;;;;-1.13;89.18;100304.66;109954;1281;22857;-64
2023/01/26 19:36:15;;;;;;;45.00;23.80;;;;;;;-1.12;89.15;100301.40;109953;1279;22649;-64
2023/01/26 19:38:45;;;;;;;42.60;21.30;;;;;;;-1.11;89.20;100300.70;109997;1278;138123;-65
2023/01/26 19:41:12;;;;;;;;;;;;;;;-1.09;89.02;100303.41;110112;1279;22410;-64
2023/01/26 19:43:39;;;;;;;37.10;19.40;;;;;;;-1.09;89.28;100301.08;110040;1278;124347;-64
2023/01/26 19:46:07;;;;;;;35.00;19.90;;;;;;;-1.08;89.11;100299.00;110109;1279;22308;-64
2023/01/26 19:48:33;;;;;;;36.20;19.60;;;;;;;-1.06;89.09;100304.53;110026;1279;138457;-64
2023/01/26 19:51:04;;;;;;;36.80;18.70;;;;;;;-1.04;89.13;100300.83;110058;1272;22200;-63
2023/01/26 19:53:37;;;;;;;39.80;20.70;;;;;;;-1.02;89.14;100305.35;110061;1279;22191;-64
2023/01/26 19:56:08;;;;;;;39.40;19.60;;;;;;;-1.05;88.95;100296.77;109973;1279;139225;-64
2023/01/26 19:58:35;;;;;;;39.90;19.90;;;;;;;-1.01;88.92;100302.16;110026;1279;23140;-65
2023/01/26 20:01:06;;;;;;;42.00;20.90;;;;;;;-1.00;88.88;100299.58;109968;1278;138981;-65
2023/01/26 20:03:33;;;;;;;41.60;21.70;;;;;;;-1.00;88.77;100290.63;109960;1279;22263;-65
2023/01/26 20:06:00;;;;;;;43.70;21.80;;;;;;;-0.99;88.87;100287.95;110048;1271;22223;-64
2023/01/26 20:08:28;;;;;;;;;;;;;;;-0.99;88.72;100289.89;109959;1278;138643;-64
2023/01/26 20:11:06;;;;;;;40.90;20.40;;;;;;;-1.00;88.96;100283.73;110038;1278;22179;-63
2023/01/26 20:13:33;;;;;;;42.10;20.90;;;;;;;-1.03;88.87;100274.83;109938;1279;138152;-65
2023/01/26 20:16:00;;;;;;;;;;;;;;;-1.06;88.55;100275.98;110032;1273;23442;-65
2023/01/26 20:18:26;;;;;;;37.20;19.60;;;;;;;-1.10;88.55;100270.36;110008;1276;124955;-65
2023/01/26 20:20:53;;;;;;;37.20;18.90;;;;;;;-1.14;88.68;100272.41;110063;1279;22366;-65
2023/01/26 20:23:20;;;;;;;40.50;18.60;;;;;;;-1.17;88.69;100273.80;110067;1279;22176;-65
2023/01/26 20:25:49;;;;;;;40.00;19.40;;;;;;;-1.18;88.73;100270.69;109890;1272;138444;-65
2023/01/26 20:28:16;;;;;;;41.00;19.30;;;;;;;-1.18;88.78;100274.10;110064;1279;22284;-66
2023/01/26 20:30:43;;;;;;;37.60;19.20;;;;;;;-1.18;88.71;100268.05;109910;1279;138417;-65
2023/01/26 20:33:10;;;;;;;37.50;19.60;;;;;;;-1.17;88.70;100264.88;110060;1275;22200;-65
2023/01/26 20:35:38;;;;;;;38.10;18.90;;;;;;;-1.18;89.06;100272.42;110037;1279;22319;-65
2023/01/26 20:38:05;;;;;;;39.80;20.20;;;;;;;-1.19;89.09;100271.14;109969;1279;138140;-65
2023/01/26 20:40:31;;;;;;;46.50;20.10;;;;;;;-1.25;88.88;100264.82;110046;1279;22163;-63
2023/01/26 20:42:58;;;;;;;39.90;19.20;;;;;;;-1.21;88.86;100278.09;109937;1279;138460;-64
2023/01/26 20:45:24;;;;;;;35.60;18.80;;;;;;;-1.23;88.98;100273.54;110020;1279;22275;-65
2023/01/26 20:47:51;;;;;;;39.80;19.10;;;;;;;-1.25;88.77;100270.89;110059;1273;22190;-65
2023/01/26 20:50:18;;;;;;;33.10;17.90;;;;;;;-1.27;89.04;100268.38;109956;1279;139504;-65
2023/01/26 20:52:45;;;;;;;38.70;19.40;;;;;;;-1.26;88.85;100265.51;110063;1279;22229;-69
2023/01/26 20:55:12;;;;;;;41.50;18.90;;;;;;;-1.28;88.69;100267.14;109927;1279;138629;-65
2023/01/26 20:57:41;;;;;;;39.50;19.40;;;;;;;-1.32;88.83;100267.72;110059;1279;22174;-65
2023/01/26 21:00:08;;;;;;;34.80;18.80;;;;;;;-1.31;89.10;100268.23;110037;1279;23325;-65
2023/01/26 21:02:35;;;;;;;40.40;20.20;;;;;;;-1.31;88.89;100266.92;109966;1279;139206;-64
2023/01/26 21:05:04;;;;;;;35.40;17.30;;;;;;;-1.31;88.94;100266.55;109991;1278;22209;-64
2023/01/26 21:07:31;;;;;;;43.20;19.70;;;;;;;-1.30;89.00;100266.31;109918;1276;138080;-64
2023/01/26 21:09:57;;;;;;;36.00;18.50;;;;;;;-1.31;89.00;100264.21;109993;1273;22297;-65
2023/01/26 21:12:24;;;;;;;34.50;16.80;;;;;;;-1.31;88.76;100265.65;109846;1272;138599;-65
2023/01/26 21:14:51;;;;;;;;;;;;;;;-1.32;88.79;100264.31;110075;1272;23186;-64
2023/01/26 21:17:21;;;;;;;34.70;18.80;;;;;;;-1.33;88.74;100258.22;110072;1279;22950;-65
2023/01/26 21:19:47;;;;;;;40.90;18.70;;;;;;;-1.33;89.01;100257.34;109976;1279;139274;-65
2023/01/26 21:22:14;;;;;;;43.70;20.60;;;;;;;-1.34;89.03;100254.64;110028;1271;22443;-65
2023/01/26 21:24:41;;;;;;;;;;;;;;;-1.41;88.71;100245.66;109949;1272;139973;-66
2023/01/26 21:27:07;;;;;;;40.10;19.10;;;;;;;-1.35;88.95;100253.94;110052;1278;22275;-66
2023/01/26 21:29:35;;;;;;;39.20;20.10;;;;;;;-1.31;89.01;100247.20;110076;1278;23605;-65
2023/01/26 21:32:02;;;;;;;51.40;25.70;;;;;;;-1.30;88.91;100245.14;109931;1279;138411;-65
2023/01/26 21:34:29;;;;;;;38.30;20.50;;;;;;;-1.31;89.06;100240.33;110052;1278;23105;-64
2023/01/26 21:36:56;;;;;;;38.40;20.00;;;;;;;-1.31;88.79;100242.46;109945;1273;139857;-65
2023/01/26 21:39:23;;;;;;;37.40;20.90;;;;;;;-1.30;88.99;100241.48;110045;1272;23024;-65
2023/01/26 21:41:56;;;;;;;36.50;21.40;;;;;;;-1.29;88.70;100243.22;110044;1273;23317;-65
2023/01/26 21:44:27;;;;;;;38.10;20.80;;;;;;;-1.28;88.85;100241.04;109930;1279;138604;-65
2023/01/26 21:46:55;;;;;;;40.00;20.50;;;;;;;-1.30;88.63;100237.78;109956;1279;22215;-64
2023/01/26 21:49:22;;;;;;;36.00;20.10;;;;;;;-1.30;88.98;100235.67;109904;1273;138153;-64
2023/01/26 21:54:37;;;;;;;34.70;18.20;;;;;;;-1.33;88.80;100237.95;109917;1272;139578;-64
2023/01/26 21:58:52;;;;;;;33.50;17.90;;;;;;;-1.34;88.92;100234.53;110037;1279;22200;-64
2023/01/26 21:59:56;;;;;;;36.80;19.00;;;;;;;-1.40;88.95;100226.96;109973;1272;22364;-64
2023/01/26 22:02:23;;;;;;;38.50;20.20;;;;;;;-1.37;89.08;100236.55;109911;1279;138536;-65
2023/01/26 22:04:49;;;;;;;36.80;18.80;;;;;;;-1.38;88.80;100237.08;109974;1279;22838;-65
2023/01/26 22:07:16;;;;;;;33.40;18.00;;;;;;;-1.40;89.05;100232.92;109989;1276;140211;-65
2023/01/26 22:09:42;;;;;;;35.20;18.50;;;;;;;-1.39;88.95;100238.32;110076;1278;22191;-64
2023/01/26 22:12:09;;;;;;;;;;;;;;;-1.39;89.22;100235.54;109997;1275;23255;-64
2023/01/26 22:14:36;;;;;;;38.40;18.00;;;;;;;-1.42;89.24;100234.39;109954;1276;125435;-64
2023/01/26 22:17:05;;;;;;;36.70;17.90;;;;;;;-1.47;88.99;100227.43;110003;1279;22272;-64
2023/01/26 22:19:31;;;;;;;35.20;18.80;;;;;;;-1.42;89.40;100233.52;109907;1273;138478;-64
2023/01/26 22:21:58;;;;;;;37.80;18.90;;;;;;;-1.40;89.24;100229.59;110038;1275;23546;-64
2023/01/26 22:24:24;;;;;;;43.40;20.60;;;;;;;-1.38;89.48;100227.63;110052;1272;22333;-64
2023/01/26 22:26:51;;;;;;;33.80;18.20;;;;;;;-1.37;89.79;100224.09;109876;1279;139371;-65
2023/01/26 22:29:18;;;;;;;37.40;19.60;;;;;;;-1.37;89.63;100220.72;110053;1272;22169;-65
2023/01/26 22:31:45;;;;;;;34.50;18.70;;;;;;;-1.36;89.41;100216.35;109940;1275;138359;-63
2023/01/26 22:34:12;;;;;;;39.50;21.90;;;;;;;-1.37;89.50;100218.77;110026;1279;22329;-63
2023/01/26 22:36:40;;;;;;;40.20;20.70;;;;;;;-1.42;89.55;100211.98;109845;1272;138539;-65
2023/01/26 22:39:07;;;;;;;35.60;18.20;;;;;;;-1.37;89.42;100214.51;110035;1279;22708;-65
2023/01/26 22:41:34;;;;;;;;;;;;;;;-1.37;89.36;100213.23;105730;1279;22621;-64
2023/01/26 22:44:01;;;;;;;32.90;17.20;;;;;;;-1.38;89.22;100210.66;105603;1275;124451;-64
2023/01/26 22:46:28;;;;;;;35.90;17.50;;;;;;;-1.38;89.43;100209.23;105753;1267;24207;-64
2023/01/26 22:48:56;;;;;;;30.00;18.60;;;;;;;-1.39;89.42;100204.34;109921;1279;138919;-64
2023/01/26 22:51:25;;;;;;;35.80;18.50;;;;;;;-1.40;89.57;100204.44;110034;1279;22392;-64
2023/01/26 22:53:52;;;;;;;35.90;18.70;;;;;;;-1.43;89.56;100203.33;110104;1273;22355;-66
2023/01/26 22:56:19;;;;;;;38.40;18.80;;;;;;;-1.44;89.43;100202.88;109901;1278;139663;-64
2023/01/26 22:58:50;;;;;;;35.80;17.30;;;;;;;-1.45;89.60;100201.08;109966;1279;22174;-65
2023/01/26 23:01:27;;;;;;;35.20;18.60;;;;;;;-1.45;89.61;100204.27;109964;1279;138372;-65
2023/01/26 23:03:54;;;;;;;33.30;19.10;;;;;;;-1.45;89.54;100205.48;110043;1276;22237;-65
2023/01/26 23:06:22;;;;;;;32.80;16.80;;;;;;;-1.43;89.53;100204.55;110069;1279;22301;-65
2023/01/26 23:08:49;;;;;;;36.90;18.90;;;;;;;-1.41;89.61;100205.10;109843;1279;139666;-65
2023/01/26 23:11:17;;;;;;;34.40;18.40;;;;;;;-1.42;89.73;100200.89;110025;1279;22817;-65
2023/01/26 23:13:45;;;;;;;39.50;22.20;;;;;;;-1.43;89.58;100202.23;109929;1279;139154;-65
2023/01/26 23:16:12;;;;;;;33.80;19.20;;;;;;;-1.43;89.68;100195.47;110109;1275;23190;-65
2023/01/26 23:18:39;;;;;;;40.60;20.50;;;;;;;-1.43;89.48;100193.90;109908;1275;138434;-65
2023/01/26 23:21:05;;;;;;;;;;;;;;;-1.46;89.77;100185.86;110113;1279;22398;-65